Time;durP1;ratioP1;P1;durP2;ratioP2;P2;SDS_P1;SDS_P2;PMS_P1;PMS_P2;Temp;Humidity;BMP_temperature;BMP_pressure;BME280_temperature;BME280_humidity;BME280_pressure;Samples;Min_cycle;Max_cycle;Signal;HPM_P1;HPM_P2
2023/06/16 00:00:50;;;;;;;18.42;6.35;;;;;;;17.22;78.59;101695.31;4985928;28;20110;-60
2023/06/16 00:03:16;;;;;;;16.83;6.30;;;;;;;17.13;78.72;101695.41;4988621;28;20114;-61
2023/06/16 00:05:44;;;;;;;17.05;6.03;;;;;;;17.12;79.19;101696.28;4985313;28;20043;-59
2023/06/16 00:08:10;;;;;;;19.63;6.35;;;;;;;17.11;79.38;101698.09;4988281;28;20026;-65
2023/06/16 00:10:35;;;;;;;18.45;6.68;;;;;;;17.05;79.95;101693.69;4986175;28;20085;-60
2023/06/16 00:13:01;;;;;;;18.00;6.20;;;;;;;17.07;83.15;101691.88;4986732;28;20034;-59
2023/06/16 00:15:26;;;;;;;17.85;6.40;;;;;;;16.94;83.86;101690.22;4987316;28;20106;-60
2023/06/16 00:17:52;;;;;;;20.67;6.55;;;;;;;16.94;83.96;101687.56;4985423;28;20508;-59
2023/06/16 00:20:21;;;;;;;19.33;6.90;;;;;;;16.98;83.01;101691.97;4988147;28;20026;-59
2023/06/16 00:22:47;;;;;;;18.25;6.38;;;;;;;16.90;83.88;101684.00;4981590;28;20038;-60
2023/06/16 00:25:21;;;;;;;20.98;6.90;;;;;;;16.92;81.06;101692.03;4980607;28;20514;-65
2023/06/16 00:27:47;;;;;;;19.38;7.10;;;;;;;16.78;81.68;101683.22;4981401;28;20058;-61
2023/06/16 00:30:12;;;;;;;18.75;7.10;;;;;;;16.77;83.75;101689.44;4987862;28;20437;-59
2023/06/16 00:32:38;;;;;;;18.42;6.80;;;;;;;16.63;82.80;101689.53;4985323;28;20449;-60
2023/06/16 00:35:03;;;;;;;19.85;7.13;;;;;;;16.64;84.87;101694.84;4986848;28;20022;-60
2023/06/16 00:37:29;;;;;;;18.70;7.22;;;;;;;16.54;86.19;101696.72;4986450;28;20026;-59
2023/06/16 00:39:55;;;;;;;18.60;7.00;;;;;;;16.39;89.51;101694.16;4985640;28;20065;-64
2023/06/16 00:42:20;;;;;;;18.17;6.80;;;;;;;16.14;90.33;101691.63;4987482;28;20027;-61
2023/06/16 00:44:45;;;;;;;20.77;7.18;;;;;;;16.20;89.74;101693.38;4984605;28;20363;-60
2023/06/16 00:47:11;;;;;;;20.63;7.10;;;;;;;16.12;90.86;101688.09;4987413;28;20499;-60
2023/06/16 00:49:36;;;;;;;18.63;6.80;;;;;;;16.10;91.20;101697.88;4985115;28;20026;-59
2023/06/16 00:52:05;;;;;;;18.98;7.07;;;;;;;16.11;90.35;101696.97;4986393;28;20120;-60
2023/06/16 00:54:32;;;;;;;19.40;7.43;;;;;;;15.98;90.98;101687.28;4985783;28;20034;-59
2023/06/16 00:56:58;;;;;;;20.08;7.90;;;;;;;15.80;92.45;101683.78;4985455;28;20062;-62
2023/06/16 00:59:26;;;;;;;19.08;7.57;;;;;;;15.75;93.38;101687.34;4987033;28;20062;-63
2023/06/16 01:01:54;;;;;;;19.83;7.60;;;;;;;15.73;93.75;101690.00;4984604;28;20026;-65
2023/06/16 01:04:21;;;;;;;21.40;7.78;;;;;;;15.72;92.73;101676.69;4987217;28;20042;-61
2023/06/16 01:07:09;;;;;;;20.42;7.80;;;;;;;15.76;92.01;101681.13;4984142;28;20027;-59
2023/06/16 01:09:48;;;;;;;19.73;7.95;;;;;;;15.71;92.74;101672.25;4984352;28;20058;-64
2023/06/16 01:12:26;;;;;;;20.23;7.43;;;;;;;15.66;95.11;101672.25;4980153;28;20082;-60
2023/06/16 01:15:00;;;;;;;19.70;7.47;;;;;;;15.66;97.47;101674.94;4981434;28;20047;-59
2023/06/16 01:17:28;;;;;;;19.75;8.02;;;;;;;15.56;97.50;101674.06;4986473;28;20377;-64
2023/06/16 01:20:09;;;;;;;18.65;7.25;;;;;;;15.55;96.42;101672.28;4984452;28;20511;-63
2023/06/16 01:22:38;;;;;;;19.83;8.00;;;;;;;15.54;98.87;101669.63;4985151;28;20113;-64
2023/06/16 01:25:04;;;;;;;19.08;7.63;;;;;;;15.56;98.11;101666.06;4985568;28;20055;-60
2023/06/16 01:27:32;;;;;;;20.23;7.78;;;;;;;15.53;98.57;101668.75;4985346;28;20026;-60
2023/06/16 01:29:58;;;;;;;21.10;7.50;;;;;;;15.46;100.00;101669.66;4984837;28;20525;-60
2023/06/16 01:32:26;;;;;;;20.23;8.30;;;;;;;15.44;100.00;101675.00;4986309;28;20046;-60
2023/06/16 01:34:52;;;;;;;21.67;7.88;;;;;;;15.36;100.00;101674.13;4983964;28;20030;-64
2023/06/16 01:37:20;;;;;;;19.42;8.00;;;;;;;15.34;99.43;101666.13;4986844;28;20037;-65
2023/06/16 01:39:46;;;;;;;19.60;8.00;;;;;;;15.33;99.63;101669.69;4979778;28;20525;-59
2023/06/16 01:42:14;;;;;;;19.42;7.85;;;;;;;15.22;100.00;101670.59;4986497;28;20035;-60
2023/06/16 01:44:42;;;;;;;19.52;8.50;;;;;;;15.16;100.00;101671.50;4983754;28;20046;-61
2023/06/16 01:47:08;;;;;;;19.42;8.00;;;;;;;15.06;100.00;101659.09;4986024;28;20019;-60
2023/06/16 01:49:34;;;;;;;22.20;8.70;;;;;;;14.97;100.00;101663.53;4984590;28;20029;-60
2023/06/16 01:52:00;;;;;;;20.63;8.20;;;;;;;14.98;100.00;101661.75;4984921;28;20046;-61
2023/06/16 01:54:25;;;;;;;19.90;7.95;;;;;;;14.95;100.00;101661.75;4985639;28;20030;-63
2023/06/16 01:56:51;;;;;;;19.58;7.88;;;;;;;14.90;100.00;101660.91;4983283;28;20109;-67
2023/06/16 01:59:17;;;;;;;18.80;8.18;;;;;;;14.89;100.00;101661.78;4986460;28;20023;-67
2023/06/16 02:01:49;;;;;;;19.58;7.90;;;;;;;14.91;100.00;101660.88;4983312;28;20033;-65
2023/06/16 02:04:18;;;;;;;19.25;7.95;;;;;;;14.79;100.00;101666.19;4986218;28;20030;-65
2023/06/16 02:06:50;;;;;;;19.40;8.40;;;;;;;14.69;100.00;101667.09;4981586;28;20385;-67
2023/06/16 02:09:17;;;;;;;20.05;8.38;;;;;;;14.74;100.00;101657.34;4986080;28;20442;-66
2023/06/16 02:11:43;;;;;;;20.95;9.10;;;;;;;14.76;100.00;101672.41;4983096;28;20031;-67
2023/06/16 02:14:10;;;;;;;20.58;8.73;;;;;;;14.74;100.00;101668.88;4985692;28;20160;-66
2023/06/16 02:16:37;;;;;;;20.35;9.05;;;;;;;14.63;100.00;101668.88;4983822;28;20030;-65
2023/06/16 02:19:03;;;;;;;19.33;9.13;;;;;;;14.58;100.00;101667.94;4984689;28;20452;-66
2023/06/16 02:21:29;;;;;;;19.95;9.07;;;;;;;14.44;100.00;101667.91;4984399;28;20118;-65
2023/06/16 02:23:54;;;;;;;20.65;9.13;;;;;;;14.54;100.00;101671.47;4982957;28;20492;-67
2023/06/16 02:26:21;;;;;;;22.95;8.80;;;;;;;14.56;100.00;101667.06;4986192;28;20485;-67
2023/06/16 02:28:48;;;;;;;20.60;8.93;;;;;;;14.44;100.00;101670.56;4982568;28;20568;-67
2023/06/16 02:31:17;;;;;;;20.98;9.00;;;;;;;14.42;100.00;101668.81;4985660;28;20381;-67
2023/06/16 02:33:43;;;;;;;21.27;9.20;;;;;;;14.32;100.00;101673.22;4981573;28;20033;-66
2023/06/16 02:36:09;;;;;;;19.27;8.73;;;;;;;14.22;100.00;101669.66;4985025;28;20031;-65
2023/06/16 02:38:35;;;;;;;21.85;9.05;;;;;;;14.18;100.00;101670.53;4983471;28;20437;-67
2023/06/16 02:41:00;;;;;;;20.85;9.38;;;;;;;14.04;100.00;101677.59;4984161;28;20122;-62
2023/06/16 02:43:25;;;;;;;20.75;9.00;;;;;;;13.94;100.00;101674.88;4984733;28;20027;-62
2023/06/16 02:45:51;;;;;;;20.85;9.30;;;;;;;13.80;100.00;101673.94;4982309;28;20043;-60
2023/06/16 02:48:16;;;;;;;20.73;9.23;;;;;;;13.72;100.00;101681.00;4985819;28;20484;-60
2023/06/16 02:50:41;;;;;;;21.08;9.40;;;;;;;13.58;100.00;101678.28;4982462;28;20026;-62
2023/06/16 02:53:08;;;;;;;19.95;8.85;;;;;;;13.51;100.00;101669.38;4984677;28;20069;-64
2023/06/16 02:55:35;;;;;;;21.98;9.70;;;;;;;13.53;100.00;101672.94;4983288;28;20057;-60
2023/06/16 02:58:01;;;;;;;21.15;9.63;;;;;;;13.48;100.00;101674.66;4983402;28;20386;-64
2023/06/16 03:00:27;;;;;;;21.05;9.38;;;;;;;13.50;100.00;101664.06;4984580;28;20109;-60
2023/06/16 03:02:52;;;;;;;21.52;9.43;;;;;;;13.48;100.00;101672.00;4982393;28;20121;-63
2023/06/16 03:05:18;;;;;;;21.85;9.77;;;;;;;13.46;100.00;101671.13;4985292;28;20437;-65
2023/06/16 03:07:44;;;;;;;21.38;9.57;;;;;;;13.50;100.00;101672.03;4982240;28;20481;-64
2023/06/16 03:10:11;;;;;;;21.65;9.40;;;;;;;13.52;100.00;101681.78;4984580;28;20499;-61
2023/06/16 03:12:36;;;;;;;21.90;9.45;;;;;;;13.46;100.00;101676.44;4982992;28;20027;-59
2023/06/16 03:15:02;;;;;;;22.08;9.07;;;;;;;13.39;100.00;101675.50;4983678;28;20027;-64
2023/06/16 03:17:27;;;;;;;22.02;9.05;;;;;;;13.32;100.00;101678.09;4984232;28;20117;-60
2023/06/16 03:19:52;;;;;;;21.33;9.00;;;;;;;13.18;100.00;101670.94;4982485;28;20437;-64
2023/06/16 03:22:18;;;;;;;21.55;8.98;;;;;;;13.22;100.00;101677.13;4985634;28;20062;-60
2023/06/16 03:24:44;;;;;;;20.65;8.82;;;;;;;13.24;100.00;101675.41;4981560;28;20057;-61
2023/06/16 03:27:10;;;;;;;20.48;8.98;;;;;;;13.20;100.00;101677.13;4984527;28;20725;-60
2023/06/16 03:29:36;;;;;;;20.30;9.13;;;;;;;13.24;100.00;101676.28;4983376;28;20027;-64
2023/06/16 03:32:05;;;;;;;20.45;8.65;;;;;;;13.20;100.00;101674.47;4984293;28;20026;-67
2023/06/16 03:34:31;;;;;;;21.73;8.70;;;;;;;13.19;100.00;101678.03;4987561;28;20038;-66
2023/06/16 03:36:57;;;;;;;22.48;9.48;;;;;;;13.10;100.00;101680.59;4986747;28;20034;-67
2023/06/16 03:39:23;;;;;;;21.17;9.20;;;;;;;13.07;100.00;101680.59;4988479;28;20039;-67
2023/06/16 03:41:49;;;;;;;22.02;8.98;;;;;;;13.12;100.00;101681.50;4985457;28;20105;-67
2023/06/16 03:44:14;;;;;;;23.23;9.93;;;;;;;13.12;100.00;101681.50;4988916;28;20542;-66
2023/06/16 03:46:40;;;;;;;22.95;9.57;;;;;;;13.06;100.00;101678.78;4986205;28;20038;-67
2023/06/16 03:49:07;;;;;;;23.13;9.65;;;;;;;13.04;100.00;101685.88;4987706;28;20119;-62
2023/06/16 03:51:33;;;;;;;23.35;9.38;;;;;;;13.06;100.00;101685.00;4987158;28;20466;-64
2023/06/16 03:53:59;;;;;;;21.25;9.20;;;;;;;13.06;100.00;101681.44;4986547;28;20050;-67
2023/06/16 03:56:24;;;;;;;21.77;9.50;;;;;;;13.14;100.00;101685.06;4988120;28;20032;-67
2023/06/16 03:58:50;;;;;;;23.55;9.75;;;;;;;13.03;100.00;101684.09;4985281;28;20121;-66
2023/06/16 04:01:16;;;;;;;21.33;10.10;;;;;;;13.02;100.00;101682.34;4981270;28;20038;-66
2023/06/16 04:03:41;;;;;;;22.58;10.00;;;;;;;12.99;100.00;101684.94;4988052;28;20034;-66
2023/06/16 04:06:06;;;;;;;22.48;9.95;;;;;;;12.96;100.00;101688.47;4986279;28;20038;-67
2023/06/16 04:08:32;;;;;;;21.45;9.98;;;;;;;12.94;100.00;101689.34;4985327;28;20038;-67
2023/06/16 04:10:58;;;;;;;22.00;9.82;;;;;;;13.01;100.00;101686.72;4987296;28;20069;-66
2023/06/16 04:13:26;;;;;;;22.05;10.20;;;;;;;12.94;100.00;101697.28;4985393;28;20042;-65
2023/06/16 04:15:51;;;;;;;23.45;11.63;;;;;;;13.02;100.00;101692.94;4988099;28;20191;-60
2023/06/16 04:18:17;;;;;;;21.88;10.75;;;;;;;13.08;100.00;101699.16;4985138;28;20039;-60
2023/06/16 04:20:42;;;;;;;21.17;10.60;;;;;;;13.11;100.00;101695.66;4987784;28;20030;-59
2023/06/16 04:23:09;;;;;;;22.60;11.48;;;;;;;13.19;100.00;101701.00;4985766;28;20417;-61
2023/06/16 04:25:38;;;;;;;22.30;11.80;;;;;;;13.33;100.00;101696.69;4986526;28;20051;-65
2023/06/16 04:28:04;;;;;;;22.58;12.05;;;;;;;13.35;100.00;101700.28;4986711;28;20373;-61
2023/06/16 04:30:33;;;;;;;24.27;12.15;;;;;;;13.33;100.00;101696.69;4985868;28;20027;-60
2023/06/16 04:33:01;;;;;;;23.65;12.38;;;;;;;13.33;100.00;101709.97;4987196;28;20031;-62
2023/06/16 04:35:29;;;;;;;23.90;12.48;;;;;;;13.35;100.00;101700.28;4985386;28;20022;-60
2023/06/16 04:37:56;;;;;;;23.40;12.05;;;;;;;13.39;100.00;101707.38;4987336;28;20114;-64
2023/06/16 04:40:29;;;;;;;22.80;11.88;;;;;;;13.43;100.00;101709.19;4984975;28;20070;-61
2023/06/16 04:42:55;;;;;;;22.80;12.38;;;;;;;13.39;100.00;101706.50;4987386;28;20026;-60
2023/06/16 04:45:21;;;;;;;23.52;12.05;;;;;;;13.40;100.00;101708.28;4984644;28;20061;-63
2023/06/16 04:47:47;;;;;;;22.98;11.30;;;;;;;13.41;100.00;101710.03;4987933;28;20038;-60
2023/06/16 04:50:13;;;;;;;24.38;11.52;;;;;;;13.45;100.00;101706.53;4984939;28;20115;-60
2023/06/16 04:52:39;;;;;;;22.85;10.95;;;;;;;13.47;100.00;101710.09;4986573;28;20098;-59
2023/06/16 04:55:06;;;;;;;23.27;10.80;;;;;;;13.54;100.00;101716.31;4985586;28;20084;-60
2023/06/16 04:57:32;;;;;;;24.52;11.40;;;;;;;13.59;100.00;101707.50;4985666;28;20035;-59
2023/06/16 04:59:58;;;;;;;24.15;11.25;;;;;;;13.68;100.00;101713.75;4986600;28;20041;-67
2023/06/16 05:02:24;;;;;;;24.67;11.02;;;;;;;13.84;100.00;101715.59;4984683;28;20386;-68
2023/06/16 05:04:50;;;;;;;28.95;11.55;;;;;;;13.86;100.00;101712.94;4987274;28;20049;-68
2023/06/16 05:07:15;;;;;;;23.92;10.50;;;;;;;13.98;100.00;101722.75;4983996;28;20082;-68
2023/06/16 05:09:41;;;;;;;23.20;10.30;;;;;;;14.03;100.00;101721.88;4987001;28;20492;-68
2023/06/16 05:12:07;;;;;;;22.40;10.30;;;;;;;14.16;100.00;101712.19;4983668;28;20141;-68
2023/06/16 05:14:33;;;;;;;22.92;10.32;;;;;;;14.28;100.00;101717.56;4985416;28;20026;-68
2023/06/16 05:16:59;;;;;;;22.73;10.55;;;;;;;14.41;100.00;101718.44;4986237;28;20031;-68
2023/06/16 05:19:24;;;;;;;22.17;10.93;;;;;;;14.51;100.00;101710.50;4984210;28;20449;-67
2023/06/16 05:21:49;;;;;;;22.17;10.57;;;;;;;14.62;100.00;101722.97;4987051;28;20042;-68
2023/06/16 05:24:15;;;;;;;23.27;10.90;;;;;;;14.76;100.00;101719.44;4983733;28;20047;-68
2023/06/16 05:26:41;;;;;;;23.45;11.40;;;;;;;14.84;100.00;101725.66;4986169;28;20096;-68
2023/06/16 05:29:06;;;;;;;23.38;12.20;;;;;;;15.01;100.00;101719.44;4984878;28;20026;-67
2023/06/16 05:31:33;;;;;;;23.55;12.45;;;;;;;15.13;100.00;101716.75;4985237;28;20482;-68
2023/06/16 05:33:58;;;;;;;22.70;12.40;;;;;;;15.23;100.00;101721.22;4985924;28;20113;-68
2023/06/16 05:36:29;;;;;;;24.02;13.90;;;;;;;15.38;100.00;101720.31;4983861;28;20130;-67
2023/06/16 05:38:55;;;;;;;26.90;14.40;;;;;;;15.46;100.00;101726.47;4984372;28;20061;-71
2023/06/16 05:41:23;;;;;;;24.52;14.65;;;;;;;15.59;100.00;101727.34;4983720;28;20445;-70
2023/06/16 05:43:51;;;;;;;24.88;15.13;;;;;;;15.69;100.00;101726.44;4983578;28;20045;-68
2023/06/16 05:46:16;;;;;;;24.27;15.40;;;;;;;15.81;100.00;101727.31;4985887;28;20038;-67
2023/06/16 05:48:42;;;;;;;25.80;16.05;;;;;;;15.88;100.00;101731.75;4984514;28;20030;-69
2023/06/16 05:51:07;;;;;;;26.25;15.45;;;;;;;15.96;100.00;101731.69;4984733;28;20035;-71
2023/06/16 05:53:32;;;;;;;26.08;15.40;;;;;;;16.04;98.82;101727.25;4984693;28;20027;-70
2023/06/16 05:55:58;;;;;;;25.05;14.40;;;;;;;16.12;95.43;101733.44;4984974;28;20145;-67
2023/06/16 05:58:23;;;;;;;24.98;13.98;;;;;;;16.19;95.87;101726.28;4982709;28;20080;-71
2023/06/16 06:00:49;;;;;;;24.35;13.93;;;;;;;16.28;95.75;101731.56;4983037;28;20106;-72
2023/06/16 06:03:14;;;;;;;24.55;13.85;;;;;;;16.42;94.25;101738.63;4985829;28;20512;-72
2023/06/16 06:05:40;;;;;;;23.75;13.70;;;;;;;16.45;92.73;101742.13;4983113;28;20031;-70
2023/06/16 06:08:05;;;;;;;23.73;14.15;;;;;;;16.51;91.90;101746.56;4986275;28;20038;-77
2023/06/16 06:10:30;;;;;;;24.60;13.70;;;;;;;16.58;91.20;101739.41;4983297;28;20533;-70
2023/06/16 06:12:56;;;;;;;23.85;14.50;;;;;;;16.65;93.61;101741.16;4984619;28;20055;-69
2023/06/16 06:15:21;;;;;;;24.30;14.10;;;;;;;16.74;93.33;101747.28;4966145;28;20382;-67
2023/06/16 06:17:46;;;;;;;24.80;13.80;;;;;;;16.86;90.81;101745.44;4984993;28;20042;-68
2023/06/16 06:20:12;;;;;;;24.33;13.48;;;;;;;16.90;89.46;101744.53;4984143;28;20113;-67
2023/06/16 06:22:37;;;;;;;22.58;12.70;;;;;;;16.98;86.21;101745.38;4983744;28;20034;-67
2023/06/16 06:25:04;;;;;;;23.33;13.00;;;;;;;17.08;85.78;101749.75;4984587;28;20509;-70
2023/06/16 06:27:30;;;;;;;22.92;12.93;;;;;;;17.19;84.26;101748.75;4982133;28;20466;-70
2023/06/16 06:29:55;;;;;;;24.05;13.43;;;;;;;17.23;84.91;101748.72;4982586;28;20035;-67
2023/06/16 06:32:21;;;;;;;24.90;13.50;;;;;;;17.29;84.33;101754.91;4985644;28;20121;-67
2023/06/16 06:34:46;;;;;;;23.98;13.02;;;;;;;17.39;82.42;101754.81;4982872;28;20038;-62
2023/06/16 06:37:16;;;;;;;25.85;12.20;;;;;;;17.49;81.89;101757.38;4984113;28;20019;-68
2023/06/16 06:39:42;;;;;;;23.50;13.02;;;;;;;17.64;80.72;101756.38;4980600;28;20034;-65
2023/06/16 06:42:07;;;;;;;24.45;12.38;;;;;;;17.72;77.75;101762.50;4984336;28;20023;-70
2023/06/16 06:44:33;;;;;;;23.88;12.95;;;;;;;17.80;77.19;101759.75;4984086;28;20048;-68
2023/06/16 06:46:58;;;;;;;23.88;12.45;;;;;;;17.91;77.51;101760.53;4985631;28;20023;-66
2023/06/16 06:49:23;;;;;;;22.17;11.80;;;;;;;17.99;73.46;101764.00;4982935;28;20035;-71
2023/06/16 06:51:50;;;;;;;22.33;11.07;;;;;;;18.12;71.48;101765.63;4984762;28;20033;-65
2023/06/16 06:54:15;;;;;;;22.30;11.40;;;;;;;18.20;70.80;101761.97;4984691;28;20026;-61
2023/06/16 06:56:41;;;;;;;23.83;12.25;;;;;;;18.29;70.32;101761.88;4982208;28;20109;-66
2023/06/16 06:59:06;;;;;;;23.73;12.07;;;;;;;18.39;70.60;101768.84;4984959;28;20039;-68
2023/06/16 07:01:31;;;;;;;24.25;12.55;;;;;;;18.44;69.79;101767.00;4982130;28;20031;-65
2023/06/16 07:03:57;;;;;;;23.08;12.40;;;;;;;18.55;68.72;101769.53;4983053;28;20038;-66
2023/06/16 07:06:22;;;;;;;22.67;11.38;;;;;;;18.62;66.42;101765.88;4984461;28;20425;-68
2023/06/16 07:08:48;;;;;;;22.40;10.35;;;;;;;18.75;66.83;101761.19;4983160;28;20027;-66
2023/06/16 07:11:13;;;;;;;23.30;11.52;;;;;;;18.87;65.79;101769.97;4981257;28;20027;-65
2023/06/16 07:13:38;;;;;;;23.55;10.45;;;;;;;18.98;66.15;101770.69;4985463;28;20030;-69
2023/06/16 07:16:04;;;;;;;23.30;10.52;;;;;;;19.08;65.24;101768.75;4984350;28;20031;-67
2023/06/16 07:18:29;;;;;;;21.88;10.93;;;;;;;19.16;62.82;101773.09;4983350;28;20027;-65
2023/06/16 07:20:55;;;;;;;21.13;9.25;;;;;;;19.27;62.25;101772.88;4982945;28;20031;-65
2023/06/16 07:23:20;;;;;;;21.23;9.23;;;;;;;19.41;60.50;101772.66;4982028;28;20117;-65
2023/06/16 07:25:46;;;;;;;21.90;8.73;;;;;;;19.49;57.54;101770.69;4984685;28;20054;-64
2023/06/16 07:28:12;;;;;;;21.33;8.30;;;;;;;19.61;55.23;101771.41;4981691;28;20553;-63
2023/06/16 07:30:38;;;;;;;22.67;9.10;;;;;;;19.66;53.92;101767.72;4985019;28;20080;-63
2023/06/16 07:33:05;;;;;;;21.05;8.73;;;;;;;19.74;55.99;101774.72;4981480;28;20453;-65
2023/06/16 07:35:31;;;;;;;20.30;8.70;;;;;;;19.90;54.28;101776.22;4984674;28;20164;-65
2023/06/16 07:37:56;;;;;;;20.83;8.40;;;;;;;19.96;52.46;101775.22;4982448;28;20109;-67
2023/06/16 07:40:22;;;;;;;20.58;7.65;;;;;;;20.08;51.41;101771.41;4979741;28;20075;-66
2023/06/16 07:42:47;;;;;;;20.40;8.23;;;;;;;20.16;51.57;101777.50;4977597;28;20050;-67
2023/06/16 07:45:13;;;;;;;21.08;8.38;;;;;;;20.33;52.74;101774.47;4983678;28;20461;-67
2023/06/16 07:47:42;;;;;;;21.55;8.88;;;;;;;20.44;53.33;101779.59;4982872;28;20031;-67
2023/06/16 07:50:08;;;;;;;22.58;9.10;;;;;;;20.57;52.47;101772.16;4983779;28;20027;-68
2023/06/16 07:52:34;;;;;;;19.85;8.48;;;;;;;20.64;50.85;101768.41;4983193;28;20050;-66
2023/06/16 07:54:59;;;;;;;22.27;8.30;;;;;;;20.80;50.88;101771.66;4982318;28;20090;-68
2023/06/16 07:57:25;;;;;;;20.52;7.95;;;;;;;20.89;47.77;101769.59;4984622;28;20038;-66
2023/06/16 07:59:50;;;;;;;19.92;7.45;;;;;;;21.01;46.80;101770.22;4981520;28;20402;-66
2023/06/16 08:02:16;;;;;;;20.30;7.90;;;;;;;21.05;47.07;101771.94;4978678;28;20345;-65
2023/06/16 08:04:41;;;;;;;20.45;8.23;;;;;;;21.18;47.30;101767.13;4983105;28;20546;-64
2023/06/16 08:07:06;;;;;;;20.92;8.30;;;;;;;21.28;46.10;101760.59;4984551;28;20050;-62
2023/06/16 08:09:32;;;;;;;21.17;7.95;;;;;;;21.42;45.69;101760.22;4983552;28;20096;-67
2023/06/16 08:11:57;;;;;;;19.40;7.07;;;;;;;21.60;46.10;101761.56;4979952;28;20046;-60
2023/06/16 08:14:22;;;;;;;20.20;7.63;;;;;;;21.74;44.20;101770.16;4984835;28;20033;-60
2023/06/16 08:16:48;;;;;;;20.15;7.35;;;;;;;21.86;43.54;101766.22;4982362;28;20066;-66
2023/06/16 08:19:13;;;;;;;18.88;7.22;;;;;;;21.89;43.51;101763.44;4983837;28;20026;-66
2023/06/16 08:21:38;;;;;;;20.15;7.78;;;;;;;22.05;44.31;101763.88;4989877;28;20354;-68
2023/06/16 08:24:05;;;;;;;18.67;7.32;;;;;;;22.16;44.59;101766.25;4986169;28;20070;-66
2023/06/16 08:26:30;;;;;;;19.98;7.30;;;;;;;22.31;44.73;101764.03;4985793;28;20479;-67
2023/06/16 08:28:56;;;;;;;18.98;7.05;;;;;;;22.58;44.20;101763.22;4987352;28;20042;-64
2023/06/16 08:31:21;;;;;;;18.00;6.70;;;;;;;22.68;42.46;101765.63;4984479;28;20031;-65
2023/06/16 08:33:47;;;;;;;17.52;6.63;;;;;;;22.85;41.25;101760.56;4988072;28;20034;-65
2023/06/16 08:36:12;;;;;;;19.50;7.15;;;;;;;22.84;40.38;101761.50;4984270;28;20034;-66
2023/06/16 08:38:38;;;;;;;19.42;6.95;;;;;;;22.89;40.96;101758.66;4987917;28;20118;-66
2023/06/16 08:41:08;;;;;;;20.48;6.88;;;;;;;23.03;41.31;101760.91;4984930;28;20034;-62
2023/06/16 08:43:36;;;;;;;18.38;6.97;;;;;;;23.17;40.46;101755.06;4980523;28;20031;-61
2023/06/16 08:46:05;;;;;;;19.27;6.97;;;;;;;23.27;39.35;101752.00;4991425;28;20034;-66
2023/06/16 08:48:34;;;;;;;18.20;6.20;;;;;;;23.46;39.43;101754.03;4984333;28;20023;-67
2023/06/16 08:50:59;;;;;;;18.35;6.47;;;;;;;23.60;38.41;101758.97;4987503;28;20076;-67
2023/06/16 08:53:31;;;;;;;18.58;6.78;;;;;;;23.54;37.05;101753.78;4984384;28;20550;-66
2023/06/16 08:55:58;;;;;;;19.00;7.40;;;;;;;23.76;38.91;101752.06;4980367;28;20130;-66
2023/06/16 08:58:25;;;;;;;19.02;6.70;;;;;;;24.02;38.50;101756.50;4985533;28;20274;-66
2023/06/16 09:00:51;;;;;;;18.52;6.55;;;;;;;24.10;37.40;101758.94;4987254;28;20061;-66
2023/06/16 09:03:17;;;;;;;17.52;5.93;;;;;;;24.10;36.82;101755.34;4980161;28;20035;-69
2023/06/16 09:05:42;;;;;;;18.88;6.35;;;;;;;24.20;36.30;101754.06;4986508;28;20456;-70
2023/06/16 09:08:08;;;;;;;17.63;5.68;;;;;;;24.36;36.10;101755.25;4983896;28;20074;-68
2023/06/16 09:10:34;;;;;;;17.10;5.72;;;;;;;24.51;34.92;101752.88;4987242;28;20109;-68
2023/06/16 09:13:00;;;;;;;17.35;5.22;;;;;;;24.78;33.92;101755.41;4985535;28;20039;-68
2023/06/16 09:15:26;;;;;;;16.13;4.90;;;;;;;24.88;32.72;101756.78;4985647;28;20026;-68
2023/06/16 09:17:52;;;;;;;15.65;5.30;;;;;;;25.03;33.76;101753.47;4984976;28;20417;-69
2023/06/16 09:20:19;;;;;;;17.35;5.43;;;;;;;25.13;33.43;101761.19;4986551;28;20034;-69
2023/06/16 09:23:04;;;;;;;16.77;5.30;;;;;;;25.18;33.57;101764.59;4984350;28;20034;-69
2023/06/16 09:25:33;;;;;;;16.75;5.40;;;;;;;25.35;33.00;101758.44;4982917;28;20054;-68
2023/06/16 09:28:01;;;;;;;14.52;5.30;;;;;;;25.40;33.22;101753.75;4986725;28;20073;-69
2023/06/16 09:30:31;;;;;;;17.42;5.05;;;;;;;25.67;32.24;101762.44;4982726;28;20489;-69
2023/06/16 09:32:57;;;;;;;17.45;5.20;;;;;;;25.71;32.60;101758.66;4986506;28;20113;-70
2023/06/16 09:35:25;;;;;;;16.88;5.53;;;;;;;25.83;31.81;101757.22;4983532;28;20023;-68
2023/06/16 09:37:56;;;;;;;15.43;5.63;;;;;;;25.86;33.22;101756.19;4979572;28;20449;-68
2023/06/16 09:40:26;;;;;;;16.77;5.57;;;;;;;26.14;33.84;101763.06;4978093;28;20030;-69
2023/06/16 09:42:52;;;;;;;17.75;5.55;;;;;;;26.14;32.37;101754.94;4986061;28;20104;-67
2023/06/16 09:45:20;;;;;;;15.95;5.38;;;;;;;26.10;31.03;101752.38;4984593;28;20477;-66
2023/06/16 09:47:47;;;;;;;14.55;4.93;;;;;;;26.32;29.97;101751.38;4984293;28;20061;-67
2023/06/16 09:50:17;;;;;;;15.98;5.20;;;;;;;26.18;30.76;101749.31;4985881;28;20481;-65
2023/06/16 09:52:45;;;;;;;15.88;5.10;;;;;;;26.37;29.93;101757.47;4984046;28;20109;-66
2023/06/16 09:55:12;;;;;;;13.27;4.90;;;;;;;26.56;32.74;101756.56;4986040;28;20035;-64
2023/06/16 09:57:39;;;;;;;14.77;4.97;;;;;;;26.59;29.50;101746.47;4982967;28;20106;-67
2023/06/16 10:00:10;;;;;;;17.15;5.43;;;;;;;26.74;30.31;101744.84;4979426;28;20029;-66
2023/06/16 10:02:36;;;;;;;15.40;5.15;;;;;;;26.54;29.99;101740.38;4986238;28;20507;-67
2023/06/16 10:05:06;;;;;;;16.20;5.10;;;;;;;26.97;31.34;101740.13;4983062;28;20042;-66
2023/06/16 10:07:32;;;;;;;16.45;5.80;;;;;;;28.25;29.07;101737.91;4986303;28;20034;-66
2023/06/16 10:10:00;;;;;;;14.68;4.72;;;;;;;29.96;26.25;101743.25;4983526;28;20035;-66
2023/06/16 10:12:27;;;;;;;17.38;5.13;;;;;;;31.37;24.64;101740.28;4980331;28;20097;-60
2023/06/16 10:14:55;;;;;;;14.63;5.00;;;;;;;32.17;23.28;101740.13;4986133;28;20422;-67
2023/06/16 10:17:21;;;;;;;16.35;5.10;;;;;;;33.31;21.98;101734.28;4979331;28;20130;-64
2023/06/16 10:19:50;;;;;;;15.45;4.80;;;;;;;34.27;21.53;101737.63;4977671;28;20035;-64
2023/06/16 10:22:16;;;;;;;15.63;4.70;;;;;;;34.66;20.43;101739.91;4980934;28;20027;-64
2023/06/16 10:24:42;;;;;;;15.27;4.85;;;;;;;35.13;19.67;101742.38;4979414;28;20062;-65
2023/06/16 10:27:10;;;;;;;12.93;4.57;;;;;;;35.73;18.78;101740.75;4979680;28;20027;-65
2023/06/16 10:29:38;;;;;;;12.65;4.57;;;;;;;35.95;18.27;101736.97;4980746;28;20093;-65
2023/06/16 10:32:07;;;;;;;13.48;4.57;;;;;;;36.33;18.13;101734.53;4981580;28;20014;-64
2023/06/16 10:34:56;;;;;;;12.18;4.43;;;;;;;37.08;19.80;101729.41;4978471;28;20022;-62
2023/06/16 10:37:23;;;;;;;13.80;4.60;;;;;;;37.38;17.13;101729.38;4978266;28;20034;-63
2023/06/16 10:39:48;;;;;;;15.18;4.80;;;;;;;36.91;16.98;101724.63;4984638;28;20381;-67
2023/06/16 10:42:15;;;;;;;13.38;4.45;;;;;;;37.70;17.15;101730.91;4981921;28;20034;-65
2023/06/16 10:44:43;;;;;;;12.48;4.65;;;;;;;37.16;17.21;101724.03;4985025;28;20041;-63
2023/06/16 10:47:08;;;;;;;12.07;4.60;;;;;;;37.99;17.07;101717.84;4982328;28;20027;-64
2023/06/16 10:49:46;;;;;;;12.17;4.57;;;;;;;36.84;17.71;101727.09;4984580;28;20109;-62
2023/06/16 10:52:30;;;;;;;13.07;4.68;;;;;;;37.15;17.24;101718.66;4977997;28;20305;-63
2023/06/16 10:54:56;;;;;;;13.40;4.45;;;;;;;38.15;16.61;101721.84;4981187;28;20031;-61
2023/06/16 10:57:25;;;;;;;13.02;4.38;;;;;;;38.48;15.76;101717.59;4984390;28;20026;-65
2023/06/16 11:00:06;;;;;;;13.27;4.40;;;;;;;39.27;15.62;101723.38;4985831;28;20031;-61
2023/06/16 11:02:34;;;;;;;13.07;4.63;;;;;;;39.22;15.11;101715.56;4982377;28;20035;-66
2023/06/16 11:05:08;;;;;;;11.70;4.50;;;;;;;39.31;16.14;101718.41;4984281;28;20035;-67
2023/06/16 11:08:01;;;;;;;11.73;4.68;;;;;;;39.83;15.43;101711.97;4982040;28;20049;-67
2023/06/16 11:10:27;;;;;;;13.15;4.57;;;;;;;39.80;13.98;101702.13;4982808;28;20093;-66